createdAt,value
2023-04-17T00:00:18.756Z,6.28
2023-04-17T00:03:06.675Z,6.32
2023-04-17T00:05:34.910Z,6.35
2023-04-17T00:08:03.103Z,6.41
2023-04-17T00:10:31.248Z,6.47
2023-04-17T00:12:59.082Z,6.52
2023-04-17T00:15:27.110Z,6.54
2023-04-17T00:17:55.568Z,6.52
2023-04-17T00:20:23.438Z,6.50
2023-04-17T00:22:51.306Z,6.46
2023-04-17T00:25:19.505Z,6.46
2023-04-17T00:27:47.433Z,6.45
2023-04-17T00:30:15.308Z,6.44
2023-04-17T00:32:43.179Z,6.45
2023-04-17T00:35:11.367Z,6.47
2023-04-17T00:37:39.560Z,6.47
2023-04-17T00:40:07.958Z,6.47
2023-04-17T00:42:36.088Z,6.50
2023-04-17T00:45:05.522Z,6.52
2023-04-17T00:47:33.658Z,6.54
2023-04-17T00:50:02.659Z,6.55
2023-04-17T00:52:31.097Z,6.57
2023-04-17T00:55:00.421Z,6.58
2023-04-17T00:57:28.907Z,6.57
2023-04-17T00:59:58.134Z,6.57
2023-04-17T01:02:27.073Z,6.57
2023-04-17T01:04:55.555Z,6.58
2023-04-17T01:07:24.518Z,6.60
2023-04-17T01:09:52.646Z,6.62
2023-04-17T01:12:23.117Z,6.61
2023-04-17T01:14:55.408Z,6.62
2023-04-17T01:17:26.883Z,6.62
2023-04-17T01:19:55.835Z,6.64
2023-04-17T01:22:23.917Z,6.65
2023-04-17T01:24:53.605Z,6.65
2023-04-17T01:27:22.823Z,6.67
2023-04-17T01:29:52.118Z,6.68
2023-04-17T01:32:21.600Z,6.69
2023-04-17T01:34:49.546Z,6.71
2023-04-17T01:37:17.887Z,6.73
2023-04-17T01:39:45.839Z,6.73
2023-04-17T01:42:14.072Z,6.75
2023-04-17T01:44:42.140Z,6.76
2023-04-17T01:47:10.920Z,6.76
2023-04-17T01:49:39.119Z,6.77
2023-04-17T01:52:07.261Z,6.78
2023-04-17T01:54:35.675Z,6.78
2023-04-17T01:57:03.540Z,6.78
2023-04-17T01:59:32.437Z,6.79
2023-04-17T02:02:06.634Z,6.78
2023-04-17T02:04:34.670Z,6.77
2023-04-17T02:07:02.864Z,6.76
2023-04-17T02:09:31.667Z,6.77
2023-04-17T02:11:59.583Z,6.76
2023-04-17T02:14:27.371Z,6.76
2023-04-17T02:16:58.327Z,6.75
2023-04-17T02:19:26.715Z,6.74
2023-04-17T02:21:55.614Z,6.76
2023-04-17T02:24:24.573Z,6.79
2023-04-17T02:26:52.626Z,6.79
2023-04-17T02:29:20.708Z,6.79
2023-04-17T02:31:48.806Z,6.79
2023-04-17T02:34:16.832Z,6.78
2023-04-17T02:36:44.875Z,6.78
2023-04-17T02:39:13.484Z,6.78
2023-04-17T02:41:42.244Z,6.80
2023-04-17T02:44:10.475Z,6.80
2023-04-17T02:46:39.212Z,6.81
2023-04-17T02:49:09.056Z,6.84
2023-04-17T02:51:37.377Z,6.85
2023-04-17T02:54:05.394Z,6.86
2023-04-17T02:56:33.348Z,6.87
2023-04-17T02:59:01.294Z,6.87
2023-04-17T03:01:30.108Z,6.87
2023-04-17T03:03:58.273Z,6.86
2023-04-17T03:06:27.486Z,6.84
2023-04-17T03:08:55.891Z,6.79
2023-04-17T03:11:24.320Z,6.75
2023-04-17T03:13:53.374Z,6.72
2023-04-17T03:16:23.085Z,6.69
2023-04-17T03:18:51.410Z,6.66
2023-04-17T03:21:20.857Z,6.65
2023-04-17T03:23:50.556Z,6.64
2023-04-17T03:26:18.678Z,6.62
2023-04-17T03:28:46.683Z,6.60
2023-04-17T03:31:15.398Z,6.59
2023-04-17T03:33:43.441Z,6.60
2023-04-17T03:36:11.919Z,6.61
2023-04-17T03:38:39.945Z,6.62
2023-04-17T03:41:10.169Z,6.65
2023-04-17T03:43:38.291Z,6.69
2023-04-17T03:46:06.385Z,6.69
2023-04-17T03:48:34.629Z,6.71
2023-04-17T03:51:03.212Z,6.78
2023-04-17T03:53:31.755Z,6.85
2023-04-17T03:56:01.920Z,6.95
2023-04-17T03:58:33.473Z,7.04
2023-04-17T04:05:09.320Z,7.26
2023-04-17T04:07:38.914Z,7.33
2023-04-17T04:10:07.721Z,7.40
2023-04-17T04:12:35.616Z,7.45
2023-04-17T04:15:03.712Z,7.51
2023-04-17T04:17:32.543Z,7.55
2023-04-17T04:20:00.805Z,7.60
2023-04-17T04:22:29.642Z,7.63
2023-04-17T04:24:57.610Z,7.67
2023-04-17T04:27:32.994Z,7.71
2023-04-17T04:34:39.249Z,7.79
2023-04-17T04:37:08.302Z,7.83
2023-04-17T04:39:39.840Z,7.87
2023-04-17T04:42:10.072Z,7.90
2023-04-17T04:44:56.349Z,7.93
2023-04-17T04:47:25.153Z,7.96
2023-04-17T04:49:54.315Z,7.99
2023-04-17T04:52:22.327Z,8.03
2023-04-17T04:54:51.526Z,8.06
2023-04-17T04:57:20.164Z,8.09
2023-04-17T04:59:48.401Z,8.13
2023-04-17T05:02:30.136Z,8.16
2023-04-17T05:04:58.234Z,8.19
2023-04-17T05:07:27.419Z,8.21
2023-04-17T05:09:55.838Z,8.24
2023-04-17T05:12:25.085Z,8.26
2023-04-17T05:14:53.304Z,8.29
2023-04-17T05:17:21.418Z,8.31
2023-04-17T05:19:50.914Z,8.35
2023-04-17T05:22:21.685Z,8.37
2023-04-17T05:25:01.222Z,8.40
2023-04-17T05:27:29.413Z,8.43
2023-04-17T05:29:57.578Z,8.45
2023-04-17T05:32:26.083Z,8.48
2023-04-17T05:34:57.386Z,8.51
2023-04-17T05:37:27.301Z,8.54
2023-04-17T05:39:56.417Z,8.57
2023-04-17T05:42:24.524Z,8.61
2023-04-17T05:44:52.645Z,8.65
2023-04-17T05:47:20.663Z,8.70
2023-04-17T05:49:51.218Z,8.73
2023-04-17T05:52:19.126Z,8.77
2023-04-17T05:54:47.050Z,8.80
2023-04-17T05:57:15.422Z,8.84
2023-04-17T05:59:43.870Z,8.89
2023-04-17T06:02:12.923Z,8.94
2023-04-17T06:04:41.684Z,9.00
2023-04-17T06:07:11.859Z,9.08
2023-04-17T06:09:40.887Z,9.17
2023-04-17T06:12:15.836Z,9.31
2023-04-17T06:14:44.360Z,9.43
2023-04-17T06:17:12.578Z,9.51
2023-04-17T06:19:40.983Z,9.58
2023-04-17T06:22:09.068Z,9.65
2023-04-17T06:24:36.994Z,9.68
2023-04-17T06:27:04.983Z,9.69
2023-04-17T06:29:33.046Z,9.77
2023-04-17T06:32:01.341Z,9.84
2023-04-17T06:34:29.382Z,9.87
2023-04-17T06:36:57.562Z,9.89
2023-04-17T06:39:25.615Z,9.90
2023-04-17T06:41:53.779Z,9.95
2023-04-17T06:44:27.324Z,10.01
2023-04-17T06:46:55.664Z,10.10
2023-04-17T06:49:23.529Z,10.22
2023-04-17T06:51:51.609Z,10.34
2023-04-17T06:54:19.536Z,10.49
2023-04-17T06:56:47.428Z,10.65
2023-04-17T06:59:16.251Z,10.79
2023-04-17T07:01:44.531Z,10.99
2023-04-17T07:04:12.776Z,11.19
2023-04-17T07:06:40.902Z,11.33
2023-04-17T07:09:08.760Z,11.41
2023-04-17T07:11:36.620Z,11.57
2023-04-17T07:14:04.471Z,11.69
2023-04-17T07:16:32.510Z,11.69
2023-04-17T07:19:00.387Z,11.66
2023-04-17T07:21:29.346Z,11.82
2023-04-17T07:23:57.228Z,11.98
2023-04-17T07:26:25.679Z,12.11
2023-04-17T07:28:53.815Z,12.21
2023-04-17T07:31:22.158Z,12.61
2023-04-17T07:33:50.710Z,13.12
2023-04-17T07:36:19.105Z,13.55
2023-04-17T07:38:47.196Z,13.81
2023-04-17T07:41:15.397Z,14.07
2023-04-17T07:43:43.589Z,14.57
2023-04-17T07:46:11.528Z,15.12
2023-04-17T07:48:40.346Z,15.59
2023-04-17T07:51:08.294Z,15.74
2023-04-17T07:53:37.654Z,15.68
2023-04-17T07:56:06.519Z,15.45
2023-04-17T07:58:35.922Z,15.12
2023-04-17T08:01:05.617Z,14.86
2023-04-17T08:03:33.929Z,14.81
2023-04-17T08:06:02.182Z,14.87
2023-04-17T08:08:30.055Z,14.97
2023-04-17T08:10:57.983Z,15.03
2023-04-17T08:13:26.328Z,14.77
2023-04-17T08:15:54.636Z,14.30
2023-04-17T08:18:22.596Z,13.96
2023-04-17T08:20:50.516Z,13.68
2023-04-17T08:23:18.714Z,13.47
2023-04-17T08:25:46.894Z,13.36
2023-04-17T08:28:15.111Z,13.21
2023-04-17T08:30:43.118Z,13.08
2023-04-17T08:33:13.428Z,12.97
2023-04-17T08:35:41.698Z,12.90
2023-04-17T08:38:14.029Z,12.88
2023-04-17T08:40:52.006Z,12.83
2023-04-17T08:43:21.604Z,12.79
2023-04-17T08:45:54.057Z,12.73
2023-04-17T08:48:23.678Z,12.65
2023-04-17T08:50:53.244Z,12.60
2023-04-17T08:53:21.771Z,12.58
2023-04-17T08:55:49.732Z,12.53
2023-04-17T08:58:17.986Z,12.52
2023-04-17T09:00:46.161Z,12.55
2023-04-17T09:03:15.876Z,12.58
2023-04-17T09:05:46.287Z,12.58
2023-04-17T09:08:16.969Z,12.61
2023-04-17T09:10:46.432Z,12.65
2023-04-17T09:13:17.635Z,12.63
2023-04-17T09:15:48.075Z,12.60
2023-04-17T09:18:32.021Z,12.61
2023-04-17T09:21:02.083Z,12.60
2023-04-17T09:23:31.919Z,12.57
2023-04-17T09:26:10.487Z,12.55
2023-04-17T09:28:43.596Z,12.59
2023-04-17T09:31:17.857Z,12.66
2023-04-17T09:34:07.708Z,12.73
2023-04-17T09:36:37.835Z,12.76
2023-04-17T09:39:20.829Z,12.80
2023-04-17T09:41:49.334Z,12.81
2023-04-17T09:44:28.308Z,12.90
2023-04-17T09:46:56.707Z,12.96
2023-04-17T09:49:42.383Z,13.07
2023-04-17T09:52:12.254Z,13.22
2023-04-17T09:54:42.003Z,13.30
2023-04-17T09:57:11.187Z,13.35
2023-04-17T09:59:41.230Z,13.30
2023-04-17T10:02:10.259Z,13.23
2023-04-17T10:04:42.161Z,13.19
2023-04-17T10:07:11.014Z,13.23
2023-04-17T10:09:42.908Z,13.30
2023-04-17T10:12:14.716Z,13.33
2023-04-17T10:14:48.801Z,13.31
2023-04-17T10:17:31.871Z,13.37
2023-04-17T10:20:33.610Z,13.46
2023-04-17T10:23:28.980Z,13.56
2023-04-17T10:26:24.963Z,13.70
2023-04-17T10:28:54.288Z,13.87
2023-04-17T10:31:25.822Z,13.97
2023-04-17T10:33:54.575Z,13.98
2023-04-17T10:36:37.853Z,13.96
2023-04-17T10:39:17.278Z,13.98
2023-04-17T10:42:05.487Z,14.15
2023-04-17T10:44:34.289Z,14.38
2023-04-17T10:50:10.604Z,14.97
2023-04-17T10:52:42.313Z,15.27
2023-04-17T10:55:25.221Z,15.46
2023-04-17T10:58:11.983Z,15.60
2023-04-17T11:04:37.248Z,15.35
2023-04-17T11:07:05.750Z,15.17
2023-04-17T11:09:34.564Z,15.06
2023-04-17T11:12:05.655Z,15.00
2023-04-17T11:14:33.706Z,15.10
2023-04-17T11:17:02.363Z,15.33
2023-04-17T11:19:32.314Z,15.59
2023-04-17T11:22:02.874Z,15.74
2023-04-17T11:24:32.436Z,15.83
2023-04-17T11:27:02.240Z,16.00
2023-04-17T11:29:30.428Z,16.14
2023-04-17T11:32:00.620Z,16.18
2023-04-17T11:34:28.565Z,16.07
2023-04-17T11:36:57.688Z,15.92
2023-04-17T11:39:31.308Z,15.84
2023-04-17T11:41:59.963Z,15.75
2023-04-17T11:44:29.304Z,15.71
2023-04-17T11:47:01.522Z,15.71
2023-04-17T11:49:37.367Z,15.75
2023-04-17T11:52:06.303Z,15.85
2023-04-17T11:54:38.405Z,15.84
2023-04-17T11:57:15.712Z,15.75
2023-04-17T11:59:45.476Z,15.68
2023-04-17T12:02:15.283Z,15.54
2023-04-17T12:04:43.603Z,15.43
2023-04-17T12:07:23.003Z,15.34
2023-04-17T12:09:57.909Z,15.13
2023-04-17T12:12:25.886Z,14.96
2023-04-17T12:14:53.811Z,14.84
2023-04-17T12:17:22.247Z,14.68
2023-04-17T12:19:50.349Z,14.55
2023-04-17T12:22:18.726Z,14.42
2023-04-17T12:24:46.583Z,14.28
2023-04-17T12:27:14.598Z,14.17
2023-04-17T12:29:44.809Z,14.03
2023-04-17T12:32:14.079Z,13.93
2023-04-17T12:34:42.095Z,13.82
2023-04-17T12:37:10.493Z,13.73
2023-04-17T12:39:38.529Z,13.66
2023-04-17T12:42:06.412Z,13.64
2023-04-17T12:44:34.414Z,13.64
2023-04-17T12:47:02.285Z,13.66
2023-04-17T12:49:30.547Z,13.70
2023-04-17T12:52:00.346Z,13.68
2023-04-17T12:54:29.628Z,13.62
2023-04-17T12:56:57.736Z,13.61
2023-04-17T12:59:25.676Z,13.60
2023-04-17T13:01:53.959Z,13.58
2023-04-17T13:04:22.590Z,13.59
2023-04-17T13:06:51.134Z,13.61
2023-04-17T13:09:20.152Z,13.64
2023-04-17T13:11:48.076Z,13.69
2023-04-17T13:14:16.069Z,13.76
2023-04-17T13:16:44.300Z,13.86
2023-04-17T13:19:12.528Z,13.96
2023-04-17T13:21:41.039Z,14.08
2023-04-17T13:24:14.530Z,14.19
2023-04-17T13:26:42.862Z,14.35
2023-04-17T13:29:11.384Z,14.49
2023-04-17T13:31:39.619Z,14.64
2023-04-17T13:34:33.226Z,14.77
2023-04-17T13:37:01.338Z,14.85
2023-04-17T13:39:29.696Z,14.89
2023-04-17T13:41:58.288Z,14.83
2023-04-17T13:44:26.292Z,14.77
2023-04-17T13:46:55.195Z,14.66
2023-04-17T13:49:23.183Z,14.57
2023-04-17T13:51:51.074Z,14.51
2023-04-17T13:54:19.584Z,14.51
2023-04-17T13:56:48.240Z,14.55
2023-04-17T13:59:16.970Z,14.56
2023-04-17T14:01:45.279Z,14.57
2023-04-17T14:04:14.006Z,14.61
2023-04-17T14:06:44.283Z,14.65
2023-04-17T14:09:13.052Z,14.69
2023-04-17T14:11:41.374Z,14.76
2023-04-17T14:14:12.884Z,14.78
2023-04-17T14:16:42.273Z,14.77
2023-04-17T14:19:13.960Z,14.78
2023-04-17T14:21:43.237Z,14.78
2023-04-17T14:24:11.348Z,14.81
2023-04-17T14:26:40.128Z,14.85
2023-04-17T14:29:09.055Z,14.88
2023-04-17T14:31:37.084Z,14.90
2023-04-17T14:34:05.272Z,14.99
2023-04-17T14:36:34.584Z,15.00
2023-04-17T14:39:02.427Z,14.89
2023-04-17T14:41:34.150Z,14.87
2023-04-17T14:44:02.379Z,14.83
2023-04-17T14:46:31.006Z,14.73
2023-04-17T14:48:59.256Z,14.67
2023-04-17T14:51:30.174Z,14.64
2023-04-17T14:53:58.406Z,14.59
2023-04-17T14:56:26.532Z,14.57
2023-04-17T14:58:54.541Z,14.59
2023-04-17T15:01:22.629Z,14.58
2023-04-17T15:03:51.260Z,14.53
2023-04-17T15:06:20.036Z,14.49
2023-04-17T15:08:48.446Z,14.47
2023-04-17T15:11:18.147Z,14.41
2023-04-17T15:13:46.038Z,14.35
2023-04-17T15:16:19.797Z,14.29
2023-04-17T15:18:51.210Z,14.27
2023-04-17T15:21:19.719Z,14.29
2023-04-17T15:23:47.608Z,14.28
2023-04-17T15:26:15.805Z,14.27
2023-04-17T15:28:43.731Z,14.24
2023-04-17T15:31:11.573Z,14.19
2023-04-17T15:33:39.569Z,14.15
2023-04-17T15:36:07.715Z,14.15
2023-04-17T15:38:35.676Z,14.15
2023-04-17T15:41:03.735Z,14.12
2023-04-17T15:43:31.857Z,14.12
2023-04-17T15:46:00.244Z,14.09
2023-04-17T15:48:28.212Z,14.06
2023-04-17T15:50:56.069Z,14.05
2023-04-17T15:53:24.106Z,13.97
2023-04-17T15:55:52.776Z,13.91
2023-04-17T15:58:20.688Z,13.86
2023-04-17T16:00:48.835Z,13.84
2023-04-17T16:03:17.514Z,13.81
2023-04-17T16:05:45.943Z,13.76
2023-04-17T16:08:14.796Z,13.73
2023-04-17T16:10:42.863Z,13.69
2023-04-17T16:13:11.071Z,13.63
2023-04-17T16:15:39.338Z,13.57
2023-04-17T16:18:07.986Z,13.54
2023-04-17T16:20:36.309Z,13.52
2023-04-17T16:23:04.705Z,13.50
2023-04-17T16:25:33.405Z,13.46
2023-04-17T16:28:01.845Z,13.39
2023-04-17T16:30:30.055Z,13.33
2023-04-17T16:32:58.489Z,13.27
2023-04-17T16:35:27.580Z,13.22
2023-04-17T16:37:57.175Z,13.15
2023-04-17T16:40:26.925Z,13.09
2023-04-17T16:42:55.934Z,13.04
2023-04-17T16:45:24.149Z,13.01
2023-04-17T16:47:52.887Z,12.97
2023-04-17T16:50:22.334Z,12.91
2023-04-17T16:52:51.878Z,12.87
2023-04-17T16:55:20.363Z,12.84
2023-04-17T16:57:48.461Z,12.82
2023-04-17T17:00:16.831Z,12.78
2023-04-17T17:02:45.091Z,12.72
2023-04-17T17:05:16.324Z,12.68
2023-04-17T17:07:44.770Z,12.66
2023-04-17T17:10:13.351Z,12.65
2023-04-17T17:12:41.944Z,12.63
2023-04-17T17:15:10.888Z,12.58
2023-04-17T17:17:39.524Z,12.57
2023-04-17T17:20:08.476Z,12.55
2023-04-17T17:22:36.653Z,12.55
2023-04-17T17:25:05.606Z,12.51
2023-04-17T17:27:34.181Z,12.44
2023-04-17T17:30:03.413Z,12.40
2023-04-17T17:32:31.583Z,12.40
2023-04-17T17:34:59.802Z,12.36
2023-04-17T17:37:28.456Z,12.35
2023-04-17T17:39:56.908Z,12.30
2023-04-17T17:42:24.964Z,12.23
2023-04-17T17:44:53.117Z,12.18
2023-04-17T17:47:21.310Z,12.12
2023-04-17T17:49:49.587Z,12.04
2023-04-17T17:52:17.687Z,11.98
2023-04-17T17:54:45.974Z,11.95
2023-04-17T17:57:13.998Z,11.94
2023-04-17T17:59:42.911Z,11.91
2023-04-17T18:02:11.247Z,11.84
2023-04-17T18:04:39.830Z,11.77
2023-04-17T18:07:08.419Z,11.70
2023-04-17T18:09:37.479Z,11.66
2023-04-17T18:12:06.333Z,11.64
2023-04-17T18:14:35.687Z,11.63
2023-04-17T18:17:04.482Z,11.58
2023-04-17T18:19:33.526Z,11.52
2023-04-17T18:22:01.809Z,11.47
2023-04-17T18:24:30.798Z,11.40
2023-04-17T18:26:59.011Z,11.34
2023-04-17T18:29:29.494Z,11.29
2023-04-17T18:31:58.526Z,11.24
2023-04-17T18:34:26.756Z,11.21
2023-04-17T18:36:55.783Z,11.17
2023-04-17T18:39:24.177Z,11.13
2023-04-17T18:41:52.972Z,11.12
2023-04-17T18:44:22.593Z,11.10
2023-04-17T18:46:51.352Z,11.08
2023-04-17T18:49:19.741Z,11.04
2023-04-17T18:51:48.089Z,11.00
2023-04-17T18:54:19.658Z,10.97
2023-04-17T18:56:48.058Z,10.96
2023-04-17T18:59:17.068Z,10.93
2023-04-17T19:04:35.307Z,10.92
2023-04-17T19:07:03.696Z,10.90
2023-04-17T19:09:32.123Z,10.87
2023-04-17T19:12:00.876Z,10.83
2023-04-17T19:14:32.596Z,10.79
2023-04-17T19:17:00.572Z,10.76
2023-04-17T19:19:29.554Z,10.75
2023-04-17T19:21:58.024Z,10.71
2023-04-17T19:24:26.498Z,10.68
2023-04-17T19:26:54.658Z,10.65
2023-04-17T19:29:23.154Z,10.60
2023-04-17T19:31:51.043Z,10.55
2023-04-17T19:34:19.462Z,10.50
2023-04-17T19:36:47.418Z,10.45
2023-04-17T19:39:15.886Z,10.39
2023-04-17T19:41:50.884Z,10.36
2023-04-17T19:44:19.667Z,10.33
2023-04-17T19:46:48.076Z,10.30
2023-04-17T19:49:16.475Z,10.27
2023-04-17T19:51:44.793Z,10.24
2023-04-17T19:54:13.262Z,10.22
2023-04-17T19:56:41.482Z,10.20
2023-04-17T19:59:12.560Z,10.19
2023-04-17T20:01:43.435Z,10.19
2023-04-17T20:04:11.941Z,10.19
2023-04-17T20:06:40.925Z,10.18
2023-04-17T20:09:11.910Z,10.16
2023-04-17T20:11:41.211Z,10.16
2023-04-17T20:14:09.104Z,10.16
2023-04-17T20:16:37.128Z,10.16
2023-04-17T20:19:05.100Z,10.15
2023-04-17T20:21:33.151Z,10.14
2023-04-17T20:24:01.076Z,10.15
2023-04-17T20:26:29.025Z,10.15
2023-04-17T20:28:56.996Z,10.16
2023-04-17T20:31:24.877Z,10.16
2023-04-17T20:33:53.413Z,10.19
2023-04-17T20:36:21.304Z,10.19
2023-04-17T20:38:49.143Z,10.18
2023-04-17T20:41:18.060Z,10.17
2023-04-17T20:43:46.096Z,10.16
2023-04-17T20:46:14.035Z,10.13
2023-04-17T20:48:41.976Z,10.12
2023-04-17T20:51:09.886Z,10.11
2023-04-17T20:53:37.734Z,10.10
2023-04-17T20:56:05.788Z,10.07
2023-04-17T20:58:33.644Z,10.04
2023-04-17T21:01:02.751Z,10.03
2023-04-17T21:03:31.828Z,10.00
2023-04-17T21:06:01.017Z,10.00
2023-04-17T21:08:28.930Z,9.98
2023-04-17T21:10:57.052Z,9.96
2023-04-17T21:13:25.135Z,9.93
2023-04-17T21:15:53.608Z,9.91
2023-04-17T21:18:21.682Z,9.89
2023-04-17T21:20:49.553Z,9.89
2023-04-17T21:23:18.129Z,9.89
2023-04-17T21:25:46.389Z,9.87
2023-04-17T21:28:14.441Z,9.85
2023-04-17T21:30:42.323Z,9.82
2023-04-17T21:33:10.301Z,9.78
2023-04-17T21:35:38.731Z,9.76
2023-04-17T21:38:06.772Z,9.74
2023-04-17T21:40:36.841Z,9.73
2023-04-17T21:43:05.218Z,9.68
2023-04-17T21:45:33.310Z,9.65
2023-04-17T21:48:01.256Z,9.63
2023-04-17T21:50:29.167Z,9.58
2023-04-17T21:52:57.092Z,9.55
2023-04-17T21:55:25.014Z,9.52
2023-04-17T21:57:54.695Z,9.49
2023-04-17T22:00:22.773Z,9.45
2023-04-17T22:02:50.884Z,9.42
2023-04-17T22:05:19.072Z,9.38
2023-04-17T22:07:54.365Z,9.33
2023-04-17T22:10:24.303Z,9.30
2023-04-17T22:12:52.312Z,9.26
2023-04-17T22:15:20.539Z,9.24
2023-04-17T22:17:48.627Z,9.19
2023-04-17T22:20:16.709Z,9.14
2023-04-17T22:22:46.730Z,9.09
2023-04-17T22:25:14.649Z,9.08
2023-04-17T22:27:42.846Z,9.02
2023-04-17T22:30:10.995Z,8.96
2023-04-17T22:32:39.059Z,8.92
2023-04-17T22:35:08.440Z,8.87
2023-04-17T22:37:36.403Z,8.85
2023-04-17T22:40:04.804Z,8.82
2023-04-17T22:42:32.794Z,8.76
2023-04-17T22:45:00.717Z,8.73
2023-04-17T22:47:28.971Z,8.69
2023-04-17T22:49:57.667Z,8.67
2023-04-17T22:52:25.694Z,8.63
2023-04-17T22:54:54.024Z,8.61
2023-04-17T22:57:21.888Z,8.57
2023-04-17T22:59:49.721Z,8.55
2023-04-17T23:02:17.530Z,8.54
2023-04-17T23:04:45.608Z,8.54
2023-04-17T23:07:13.517Z,8.55
2023-04-17T23:09:41.293Z,8.54
2023-04-17T23:12:09.129Z,8.54
2023-04-17T23:14:37.055Z,8.53
2023-04-17T23:17:06.557Z,8.52
2023-04-17T23:19:34.456Z,8.52
2023-04-17T23:22:02.430Z,8.52
2023-04-17T23:24:51.595Z,8.54
2023-04-17T23:27:19.892Z,8.53
2023-04-17T23:29:48.070Z,8.50
2023-04-17T23:32:16.230Z,8.48
2023-04-17T23:34:44.138Z,8.48
2023-04-17T23:37:11.994Z,8.49
2023-04-17T23:39:40.124Z,8.49
2023-04-17T23:42:08.805Z,8.48
2023-04-17T23:44:36.662Z,8.46
2023-04-17T23:47:04.737Z,8.45
2023-04-17T23:49:34.005Z,8.46
2023-04-17T23:52:02.359Z,8.44
2023-04-17T23:54:30.308Z,8.46
2023-04-17T23:56:58.191Z,8.47
2023-04-17T23:59:26.127Z,8.46
